Main page
METAR-TAF:

METAR-TAF

Airports :

Aitkin Municipal Airport

Aitkin, Minnesota, United States

latitude: 46-33N, longitude: 093-41W, elevation: 1204 ft

Current weather observation

The report was made 34 minutes ago, at 09:35 UTC
Calm wind
Temperature 25°F
Humidity 100%
Pressure 29.76 in. Hg
Visibility: 10 miles
Clear sky

METAR: KAIT 220935Z AUTO 00000KT 10SM CLR M04/M04 A2976 RMK AO2

Time: 04:09 (10:09 UTC)


TAF: missing

Weather observations and forecasts of more than 4000 airports (METAR and TAF reports).

The available stations are represented by yellow and red dots on the map.

Hover mouse over dot to see the name of the station.

Then click to see weather observations and forecasts.

To change the map : click on the green buttons with a black cross to zoom in, on the green button with a dash to zoom out, or on the green arrows for adjacent maps.


METAR-TAF: